createdAt,value
2023-03-25T00:00:53.535Z,78.11
2023-03-25T00:03:28.775Z,78.98
2023-03-25T00:06:01.647Z,78.48
2023-03-25T00:08:34.220Z,78.16
2023-03-25T00:11:08.470Z,78.21
2023-03-25T00:13:43.113Z,78.38
2023-03-25T00:16:16.292Z,77.94
2023-03-25T00:18:50.059Z,77.98
2023-03-25T00:21:23.546Z,78.05
2023-03-25T00:23:56.278Z,77.96
2023-03-25T00:26:30.319Z,77.94
2023-03-25T00:29:02.749Z,78.06
2023-03-25T00:31:35.723Z,78.80
2023-03-25T00:34:08.907Z,78.40
2023-03-25T00:36:41.731Z,78.47
2023-03-25T00:39:14.240Z,78.18
2023-03-25T00:41:49.008Z,78.06
2023-03-25T00:44:22.524Z,77.51
2023-03-25T00:46:55.028Z,77.38
2023-03-25T00:49:28.839Z,77.52
2023-03-25T00:52:02.377Z,77.41
2023-03-25T00:54:35.339Z,76.73
2023-03-25T00:57:07.921Z,76.30
2023-03-25T00:59:40.440Z,76.22
2023-03-25T01:02:12.933Z,76.18
2023-03-25T01:04:46.834Z,75.81
2023-03-25T01:07:20.513Z,75.13
2023-03-25T01:09:53.066Z,74.79
2023-03-25T01:12:25.868Z,74.18
2023-03-25T01:14:58.273Z,73.66
2023-03-25T01:17:31.711Z,73.40
2023-03-25T01:20:08.793Z,73.13
2023-03-25T01:22:41.711Z,73.11
2023-03-25T01:25:14.198Z,72.98
2023-03-25T01:27:47.171Z,73.35
2023-03-25T01:30:20.057Z,73.52
2023-03-25T01:32:52.621Z,73.66
2023-03-25T01:35:25.186Z,73.73
2023-03-25T01:37:57.986Z,73.66
2023-03-25T01:40:30.429Z,73.86
2023-03-25T01:43:03.150Z,73.80
2023-03-25T01:45:35.784Z,73.98
2023-03-25T01:48:13.309Z,73.80
2023-03-25T01:50:51.115Z,73.51
2023-03-25T01:53:24.080Z,73.26
2023-03-25T01:55:56.713Z,73.06
2023-03-25T01:58:33.103Z,73.15
2023-03-25T02:01:06.951Z,72.89
2023-03-25T02:03:40.161Z,73.00
2023-03-25T02:06:17.313Z,73.36
2023-03-25T02:08:51.414Z,73.65
2023-03-25T02:11:29.084Z,73.77
2023-03-25T02:14:07.345Z,73.83
2023-03-25T02:16:50.540Z,73.74
2023-03-25T02:19:54.366Z,73.86
2023-03-25T02:22:54.142Z,73.76
2023-03-25T02:25:56.501Z,73.74
2023-03-25T02:28:37.018Z,73.65
2023-03-25T02:31:52.554Z,73.52
2023-03-25T02:35:24.268Z,73.46
2023-03-25T02:38:21.935Z,72.93
2023-03-25T02:41:02.426Z,72.40
2023-03-25T02:43:45.458Z,72.23
2023-03-25T02:46:19.888Z,72.23
2023-03-25T02:49:02.838Z,72.55
2023-03-25T02:51:38.955Z,72.60
2023-03-25T02:54:13.918Z,72.69
2023-03-25T02:56:49.715Z,72.78
2023-03-25T02:59:23.376Z,72.74
2023-03-25T03:01:58.939Z,72.47
2023-03-25T03:04:34.060Z,72.63
2023-03-25T03:07:06.610Z,72.46
2023-03-25T03:09:46.266Z,72.33
2023-03-25T03:12:33.174Z,71.99
2023-03-25T03:15:20.902Z,71.66
2023-03-25T03:18:06.681Z,71.21
2023-03-25T03:20:45.610Z,71.23
2023-03-25T03:23:26.839Z,71.01
2023-03-25T03:26:06.031Z,70.67
2023-03-25T03:28:45.814Z,70.18
2023-03-25T03:31:48.171Z,70.29
2023-03-25T03:34:26.585Z,70.10
2023-03-25T03:37:02.405Z,70.29
2023-03-25T03:39:37.367Z,71.01
2023-03-25T03:42:16.998Z,71.11
2023-03-25T03:44:55.622Z,71.10
2023-03-25T03:47:31.901Z,71.85
2023-03-25T03:50:10.086Z,72.45
2023-03-25T03:52:47.310Z,72.36
2023-03-25T03:55:25.690Z,72.50
2023-03-25T03:58:02.714Z,72.40
2023-03-25T04:00:42.892Z,72.39
2023-03-25T04:03:24.559Z,72.62
2023-03-25T04:06:06.571Z,72.46
2023-03-25T04:08:46.141Z,72.43
2023-03-25T04:11:23.101Z,72.33
2023-03-25T04:14:00.621Z,73.02
2023-03-25T04:16:36.054Z,73.23
2023-03-25T04:19:09.474Z,73.34
2023-03-25T04:21:42.680Z,73.59
2023-03-25T04:24:19.904Z,73.48
2023-03-25T04:26:53.200Z,73.14
2023-03-25T04:29:26.193Z,72.47
2023-03-25T04:31:59.399Z,72.19
2023-03-25T04:34:32.009Z,72.03
2023-03-25T04:37:05.830Z,71.91
2023-03-25T04:39:40.368Z,72.23
2023-03-25T04:42:13.858Z,72.59
2023-03-25T04:44:49.147Z,72.82
2023-03-25T04:47:25.183Z,72.96
2023-03-25T04:49:57.746Z,72.84
2023-03-25T04:52:31.284Z,72.66
2023-03-25T04:55:05.291Z,72.81
2023-03-25T04:57:37.848Z,72.99
2023-03-25T05:00:13.491Z,73.34
2023-03-25T05:02:49.578Z,73.14
2023-03-25T05:05:24.013Z,72.95
2023-03-25T05:08:02.118Z,72.86
2023-03-25T05:10:36.540Z,73.27
2023-03-25T05:13:10.390Z,73.57
2023-03-25T05:15:43.565Z,73.74
2023-03-25T05:18:18.224Z,73.79
2023-03-25T05:20:51.520Z,74.05
2023-03-25T05:23:24.936Z,73.94
2023-03-25T05:25:57.893Z,74.27
2023-03-25T05:28:33.840Z,74.76
2023-03-25T05:31:08.604Z,75.48
2023-03-25T05:33:43.489Z,75.85
2023-03-25T05:36:20.997Z,76.99
2023-03-25T05:38:57.017Z,77.13
2023-03-25T05:41:33.706Z,77.58
2023-03-25T05:44:06.930Z,78.13
2023-03-25T05:46:39.577Z,79.24
2023-03-25T05:49:12.099Z,79.31
2023-03-25T05:51:45.354Z,78.86
2023-03-25T05:54:18.352Z,79.13
2023-03-25T05:56:51.072Z,79.39
2023-03-25T05:59:23.577Z,78.51
2023-03-25T06:01:56.017Z,78.53
2023-03-25T06:04:28.857Z,79.21
2023-03-25T06:07:03.882Z,78.80
2023-03-25T06:09:36.772Z,79.35
2023-03-25T06:12:09.725Z,79.44
2023-03-25T06:14:45.951Z,79.54
2023-03-25T06:17:22.345Z,79.90
2023-03-25T06:19:54.949Z,80.17
2023-03-25T06:22:27.532Z,80.35
2023-03-25T06:25:03.815Z,79.77
2023-03-25T06:27:40.723Z,80.40
2023-03-25T06:30:17.281Z,79.49
2023-03-25T06:32:52.636Z,78.76
2023-03-25T06:35:25.664Z,79.17
2023-03-25T06:37:58.179Z,79.24
2023-03-25T06:40:35.412Z,80.16
2023-03-25T06:43:08.474Z,79.79
2023-03-25T06:45:43.838Z,78.99
2023-03-25T06:48:39.841Z,79.26
2023-03-25T06:51:12.751Z,79.54
2023-03-25T06:53:45.447Z,80.06
2023-03-25T06:56:19.886Z,80.52
2023-03-25T06:58:52.420Z,80.41
2023-03-25T07:01:25.126Z,79.32
2023-03-25T07:03:57.620Z,79.56
2023-03-25T07:06:30.307Z,78.65
2023-03-25T07:09:02.815Z,78.35
2023-03-25T07:11:36.465Z,78.28
2023-03-25T07:14:09.076Z,78.28
2023-03-25T07:16:41.601Z,78.41
2023-03-25T07:19:14.122Z,78.77
2023-03-25T07:21:46.571Z,79.01
2023-03-25T07:24:19.015Z,78.68
2023-03-25T07:26:51.491Z,78.55
2023-03-25T07:29:25.541Z,79.00
2023-03-25T07:31:57.925Z,79.63
2023-03-25T07:34:30.973Z,78.39
2023-03-25T07:37:04.164Z,78.07
2023-03-25T07:39:36.758Z,78.70
2023-03-25T07:42:09.604Z,78.96
2023-03-25T07:45:09.551Z,80.57
2023-03-25T07:47:42.778Z,80.43
2023-03-25T07:50:15.641Z,79.26
2023-03-25T07:52:48.484Z,79.51
2023-03-25T07:55:21.131Z,80.35
2023-03-25T07:57:53.709Z,80.42
2023-03-25T08:00:26.422Z,80.12
2023-03-25T08:02:59.495Z,80.59
2023-03-25T08:05:32.301Z,80.80
2023-03-25T08:08:07.747Z,80.41
2023-03-25T08:10:40.509Z,80.21
2023-03-25T08:13:13.068Z,80.28
2023-03-25T08:15:45.676Z,79.54
2023-03-25T08:18:18.202Z,80.09
2023-03-25T08:20:52.053Z,80.41
2023-03-25T08:23:26.312Z,79.35
2023-03-25T08:25:58.810Z,77.74
2023-03-25T08:28:31.399Z,76.27
2023-03-25T08:31:06.844Z,74.75
2023-03-25T08:33:41.273Z,73.39
2023-03-25T08:36:19.760Z,73.60
2023-03-25T08:38:52.710Z,72.45
2023-03-25T08:41:26.514Z,71.44
2023-03-25T08:43:58.997Z,71.99
2023-03-25T08:46:31.798Z,72.26
2023-03-25T08:49:04.742Z,71.04
2023-03-25T08:51:37.316Z,70.16
2023-03-25T08:54:09.757Z,71.54
2023-03-25T08:56:42.434Z,70.15
2023-03-25T08:59:14.907Z,70.07
2023-03-25T09:01:47.902Z,69.99
2023-03-25T09:04:20.362Z,69.46
2023-03-25T09:07:12.038Z,69.82
2023-03-25T09:09:45.726Z,69.66
2023-03-25T09:12:18.214Z,70.02
2023-03-25T09:14:50.706Z,70.28
2023-03-25T09:17:23.328Z,69.76
2023-03-25T09:19:57.022Z,69.06
2023-03-25T09:22:31.079Z,68.24
2023-03-25T09:25:03.568Z,68.20
2023-03-25T09:27:36.077Z,68.89
2023-03-25T09:30:10.940Z,68.45
2023-03-25T09:32:41.733Z,67.71
2023-03-25T09:35:14.361Z,67.59
2023-03-25T09:37:51.822Z,66.14
2023-03-25T09:40:26.034Z,65.65
2023-03-25T09:43:05.957Z,66.01
2023-03-25T09:45:42.043Z,64.67
2023-03-25T09:48:29.899Z,64.19
2023-03-25T09:51:06.868Z,64.43
2023-03-25T09:53:46.060Z,64.38
2023-03-25T09:56:22.688Z,64.52
2023-03-25T09:58:58.453Z,65.81
2023-03-25T10:01:39.395Z,66.51
2023-03-25T10:04:45.663Z,65.97
2023-03-25T10:07:42.464Z,65.76
2023-03-25T10:10:24.957Z,65.81
2023-03-25T10:13:04.518Z,65.42
2023-03-25T10:15:42.097Z,64.57
2023-03-25T10:18:39.238Z,64.15
2023-03-25T10:21:16.960Z,62.82
2023-03-25T10:23:56.695Z,63.70
2023-03-25T10:26:34.142Z,64.46
2023-03-25T10:29:11.572Z,66.24
2023-03-25T10:31:52.520Z,66.29
2023-03-25T10:34:36.140Z,66.91
2023-03-25T10:37:14.130Z,68.13
2023-03-25T10:39:47.446Z,68.88
2023-03-25T10:42:27.502Z,69.00
2023-03-25T10:45:00.578Z,69.82
2023-03-25T10:47:37.894Z,70.76
2023-03-25T10:50:18.444Z,71.09
2023-03-25T10:52:52.896Z,68.45
2023-03-25T10:55:30.180Z,69.27
2023-03-25T10:58:03.137Z,71.43
2023-03-25T11:00:35.762Z,72.07
2023-03-25T11:03:12.134Z,72.06
2023-03-25T11:05:45.788Z,72.03
2023-03-25T11:08:24.511Z,73.71
2023-03-25T11:11:01.019Z,75.73
2023-03-25T11:13:36.254Z,77.00
2023-03-25T11:16:13.389Z,76.04
2023-03-25T11:18:48.352Z,76.79
2023-03-25T11:21:21.840Z,78.47
2023-03-25T11:23:55.760Z,80.03
2023-03-25T11:26:33.944Z,80.38
2023-03-25T11:29:09.520Z,80.76
2023-03-25T11:31:44.590Z,80.68
2023-03-25T11:34:21.132Z,80.34
2023-03-25T11:36:56.852Z,80.58
2023-03-25T11:39:35.027Z,80.87
2023-03-25T11:42:23.848Z,80.54
2023-03-25T11:44:59.666Z,78.49
2023-03-25T11:47:36.505Z,79.51
2023-03-25T11:50:20.170Z,79.09
2023-03-25T11:52:57.009Z,78.37
2023-03-25T11:55:32.497Z,75.85
2023-03-25T11:58:06.261Z,73.75
2023-03-25T12:00:43.911Z,73.91
2023-03-25T12:03:23.123Z,72.92
2023-03-25T12:06:06.267Z,72.29
2023-03-25T12:08:50.143Z,72.30
2023-03-25T12:11:25.309Z,70.70
2023-03-25T12:14:20.013Z,70.28
2023-03-25T12:17:03.074Z,71.40
2023-03-25T12:19:45.847Z,70.94
2023-03-25T12:22:31.787Z,68.45
2023-03-25T12:25:18.407Z,68.29
2023-03-25T12:28:01.351Z,69.61
2023-03-25T12:30:44.090Z,68.99
2023-03-25T12:33:31.469Z,65.37
2023-03-25T12:36:17.028Z,65.76
2023-03-25T12:39:03.987Z,65.26
2023-03-25T12:41:44.019Z,64.01
2023-03-25T12:44:40.065Z,63.59
2023-03-25T12:47:23.398Z,62.89
2023-03-25T12:50:08.179Z,61.67
2023-03-25T12:52:51.131Z,61.05
2023-03-25T12:55:42.948Z,60.65
2023-03-25T12:58:43.990Z,59.16
2023-03-25T13:01:28.796Z,58.09
2023-03-25T13:04:25.202Z,58.89
2023-03-25T13:07:04.409Z,59.78
2023-03-25T13:09:53.365Z,60.77
2023-03-25T13:12:33.522Z,60.62
2023-03-25T13:15:21.777Z,61.99
2023-03-25T13:18:04.126Z,63.49
2023-03-25T13:20:41.888Z,66.86
2023-03-25T13:23:17.896Z,68.16
2023-03-25T13:25:56.816Z,67.68
2023-03-25T13:28:38.682Z,68.64
2023-03-25T13:31:15.039Z,69.34
2023-03-25T13:33:54.499Z,70.65
2023-03-25T13:36:31.653Z,70.05
2023-03-25T13:39:09.329Z,71.35
2023-03-25T13:41:44.904Z,72.64
2023-03-25T13:44:22.426Z,69.53
2023-03-25T13:47:00.046Z,70.22
2023-03-25T13:49:37.555Z,70.48
2023-03-25T13:52:11.349Z,70.57
2023-03-25T13:54:50.556Z,68.46
2023-03-25T13:57:40.457Z,68.44
2023-03-25T14:00:36.517Z,68.03
2023-03-25T14:03:31.540Z,67.68
2023-03-25T14:06:39.986Z,67.62
2023-03-25T14:09:48.796Z,66.96
2023-03-25T14:12:27.653Z,67.68
2023-03-25T14:15:05.332Z,69.18
2023-03-25T14:17:39.767Z,66.63
2023-03-25T14:20:13.820Z,65.08
2023-03-25T14:22:47.187Z,67.24
2023-03-25T14:25:29.560Z,66.93
2023-03-25T14:28:03.647Z,66.45
2023-03-25T14:30:36.693Z,68.94
2023-03-25T14:33:13.091Z,69.19
2023-03-25T14:35:53.627Z,70.16
2023-03-25T14:38:53.030Z,69.86
2023-03-25T14:41:58.696Z,68.21
2023-03-25T14:44:33.316Z,66.67
2023-03-25T14:47:31.422Z,67.15
2023-03-25T14:50:35.737Z,65.90
2023-03-25T14:53:14.410Z,66.44
2023-03-25T14:55:48.880Z,67.10
2023-03-25T14:58:25.058Z,66.13
2023-03-25T15:01:00.865Z,66.01
2023-03-25T15:03:37.381Z,66.04
2023-03-25T15:06:16.142Z,66.72
2023-03-25T15:08:59.780Z,67.87
2023-03-25T15:11:37.400Z,66.82
2023-03-25T15:14:15.345Z,66.46
2023-03-25T15:17:06.744Z,66.35
2023-03-25T15:20:15.840Z,65.97
2023-03-25T15:23:08.273Z,66.00
2023-03-25T15:25:41.470Z,67.19
2023-03-25T15:28:23.838Z,67.82
2023-03-25T15:31:14.772Z,67.76
2023-03-25T15:34:07.181Z,67.87
2023-03-25T15:37:06.579Z,68.47
2023-03-25T15:39:54.625Z,64.72
2023-03-25T15:42:43.927Z,61.92
2023-03-25T15:45:33.119Z,61.74
2023-03-25T15:48:46.381Z,61.48
2023-03-25T15:51:38.499Z,60.83
2023-03-25T15:54:33.074Z,60.26
2023-03-25T15:57:14.502Z,60.90
2023-03-25T15:59:52.152Z,61.40
2023-03-25T16:02:32.294Z,61.38
2023-03-25T16:05:07.728Z,60.83
2023-03-25T16:07:42.433Z,60.94
2023-03-25T16:10:19.425Z,60.77
2023-03-25T16:12:52.733Z,60.75
2023-03-25T16:15:30.666Z,61.43
2023-03-25T16:18:07.816Z,62.22
2023-03-25T16:20:41.861Z,63.20
2023-03-25T16:23:21.615Z,63.35
2023-03-25T16:25:56.544Z,63.58
2023-03-25T16:28:33.434Z,63.13
2023-03-25T16:31:06.086Z,63.09
2023-03-25T16:33:42.006Z,62.09
2023-03-25T16:36:18.254Z,61.47
2023-03-25T16:38:51.073Z,61.64
2023-03-25T16:41:23.569Z,61.85
2023-03-25T16:43:58.044Z,61.62
2023-03-25T16:46:31.762Z,61.97
2023-03-25T16:49:05.733Z,61.97
2023-03-25T16:51:39.170Z,61.78
2023-03-25T16:54:22.153Z,62.04
2023-03-25T16:56:54.804Z,62.25
2023-03-25T16:59:31.474Z,61.91
2023-03-25T17:02:06.435Z,61.71
2023-03-25T17:04:43.317Z,61.38
2023-03-25T17:07:21.078Z,61.73
2023-03-25T17:09:56.738Z,62.12
2023-03-25T17:12:30.838Z,61.95
2023-03-25T17:15:09.469Z,62.00
2023-03-25T17:17:48.812Z,62.49
2023-03-25T17:20:27.738Z,62.45
2023-03-25T17:23:08.291Z,62.52
2023-03-25T17:25:54.952Z,62.47
2023-03-25T17:28:34.357Z,62.41
2023-03-25T17:31:22.032Z,62.71
2023-03-25T17:33:59.216Z,66.02
2023-03-25T17:36:34.372Z,68.63
2023-03-25T17:39:14.494Z,70.58
2023-03-25T17:41:47.341Z,69.92
2023-03-25T17:44:21.042Z,69.90
2023-03-25T17:46:53.574Z,68.13
2023-03-25T17:49:26.091Z,67.39
2023-03-25T17:51:59.337Z,68.44
2023-03-25T17:54:32.365Z,68.76
2023-03-25T17:57:09.306Z,68.99
2023-03-25T17:59:41.781Z,68.65
2023-03-25T18:02:17.192Z,68.54
2023-03-25T18:04:50.030Z,69.17
2023-03-25T18:07:23.149Z,69.63
2023-03-25T18:09:55.794Z,70.05
2023-03-25T18:12:28.534Z,69.30
2023-03-25T18:15:01.131Z,69.47
2023-03-25T18:17:33.767Z,69.36
2023-03-25T18:20:17.205Z,69.29
2023-03-25T18:25:25.354Z,69.60
2023-03-25T18:27:59.048Z,70.05
2023-03-25T18:30:34.815Z,69.69
2023-03-25T18:33:07.834Z,69.71
2023-03-25T18:35:40.548Z,70.32
2023-03-25T18:38:19.421Z,70.92
2023-03-25T18:40:53.053Z,70.14
2023-03-25T18:43:26.176Z,71.50
2023-03-25T18:45:58.805Z,68.75
2023-03-25T18:48:31.678Z,69.22
2023-03-25T18:51:04.288Z,72.30
2023-03-25T18:53:36.989Z,73.89
2023-03-25T18:56:10.781Z,73.78
2023-03-25T18:58:43.428Z,75.00
2023-03-25T19:01:18.703Z,75.38
2023-03-25T19:03:51.986Z,73.80
2023-03-25T19:06:24.320Z,73.60
2023-03-25T19:08:57.579Z,73.08
2023-03-25T19:11:30.693Z,72.40
2023-03-25T19:14:03.286Z,72.82
2023-03-25T19:16:35.986Z,72.83
2023-03-25T19:19:08.537Z,73.55
2023-03-25T19:21:42.506Z,74.23
2023-03-25T19:24:15.079Z,74.16
2023-03-25T19:26:48.824Z,74.43
2023-03-25T19:29:21.479Z,74.21
2023-03-25T19:31:53.967Z,74.02
2023-03-25T19:34:26.816Z,74.20
2023-03-25T19:37:02.893Z,73.78
2023-03-25T19:39:35.462Z,73.46
2023-03-25T19:42:08.494Z,73.32
2023-03-25T19:44:41.977Z,73.02
2023-03-25T19:47:14.516Z,73.28
2023-03-25T19:49:47.398Z,73.33
2023-03-25T19:52:20.507Z,73.16
2023-03-25T19:54:53.489Z,74.24
2023-03-25T19:57:26.717Z,74.18
2023-03-25T19:59:59.292Z,73.90
2023-03-25T20:02:33.649Z,73.79
2023-03-25T20:05:06.162Z,73.96
2023-03-25T20:07:38.711Z,73.81
2023-03-25T20:10:19.903Z,73.55
2023-03-25T20:12:53.427Z,73.76
2023-03-25T20:15:27.295Z,73.87
2023-03-25T20:18:00.378Z,75.05
2023-03-25T20:20:33.199Z,76.38
2023-03-25T20:23:05.824Z,76.47
2023-03-25T20:25:38.581Z,77.36
2023-03-25T20:28:11.456Z,76.74
2023-03-25T20:30:43.947Z,76.33
2023-03-25T20:33:16.469Z,75.65
2023-03-25T20:35:49.804Z,75.13
2023-03-25T20:38:22.509Z,74.50
2023-03-25T20:40:57.093Z,75.04
2023-03-25T20:43:30.442Z,76.43
2023-03-25T20:46:03.188Z,76.50
2023-03-25T20:48:36.477Z,76.46
2023-03-25T20:51:11.252Z,77.06
2023-03-25T20:53:44.840Z,76.68
2023-03-25T20:56:17.551Z,76.08
2023-03-25T20:58:50.074Z,75.71
2023-03-25T21:01:23.668Z,75.96
2023-03-25T21:03:58.610Z,76.32
2023-03-25T21:06:29.862Z,76.53
2023-03-25T21:09:09.930Z,77.61
2023-03-25T21:11:52.620Z,78.14
2023-03-25T21:14:25.109Z,78.94
2023-03-25T21:16:57.955Z,77.10
2023-03-25T21:19:30.833Z,79.60
2023-03-25T21:22:03.374Z,80.85
2023-03-25T21:24:36.062Z,80.36
2023-03-25T21:27:08.807Z,80.36
2023-03-25T21:29:41.288Z,79.49
2023-03-25T21:32:14.126Z,78.99
2023-03-25T21:34:46.732Z,78.91
2023-03-25T21:37:19.515Z,78.74
2023-03-25T21:39:57.432Z,78.75
2023-03-25T21:42:29.945Z,78.53
2023-03-25T21:45:02.702Z,78.43
2023-03-25T21:47:36.293Z,78.66
2023-03-25T21:50:11.355Z,79.21
2023-03-25T21:52:47.180Z,79.22
2023-03-25T21:55:22.421Z,79.69
2023-03-25T21:57:54.997Z,79.47
2023-03-25T22:00:27.818Z,79.54
2023-03-25T22:03:00.400Z,79.75
2023-03-25T22:05:32.942Z,79.36
2023-03-25T22:08:06.781Z,79.45
2023-03-25T22:10:39.289Z,79.15
2023-03-25T22:13:11.849Z,78.53
2023-03-25T22:15:44.361Z,78.82
2023-03-25T22:18:16.897Z,78.86
2023-03-25T22:20:49.390Z,79.35
2023-03-25T22:23:22.377Z,79.02
2023-03-25T22:25:55.117Z,78.87
2023-03-25T22:28:27.985Z,79.27
2023-03-25T22:31:00.595Z,79.59
2023-03-25T22:33:36.396Z,78.97
2023-03-25T22:36:13.005Z,78.52
2023-03-25T22:38:47.436Z,78.68
2023-03-25T22:41:19.949Z,78.73
2023-03-25T22:43:52.359Z,78.14
2023-03-25T22:46:25.254Z,77.82
2023-03-25T22:48:57.774Z,78.31
2023-03-25T22:51:30.354Z,78.30
2023-03-25T22:54:02.850Z,78.43
2023-03-25T22:56:35.795Z,77.94
2023-03-25T22:59:09.725Z,77.40
2023-03-25T23:01:42.667Z,77.33
2023-03-25T23:04:16.288Z,77.75
2023-03-25T23:07:00.541Z,77.74
2023-03-25T23:09:42.589Z,77.33
2023-03-25T23:12:17.830Z,76.91
2023-03-25T23:14:55.897Z,77.49
2023-03-25T23:17:29.205Z,77.45
2023-03-25T23:20:02.255Z,77.81
2023-03-25T23:22:34.791Z,77.15
2023-03-25T23:25:09.709Z,77.19
2023-03-25T23:27:45.031Z,77.09
2023-03-25T23:30:18.344Z,76.80
2023-03-25T23:32:51.357Z,75.79
2023-03-25T23:35:24.276Z,75.63
2023-03-25T23:37:57.040Z,75.46
2023-03-25T23:40:30.222Z,75.34
2023-03-25T23:43:02.666Z,75.16
2023-03-25T23:45:35.215Z,75.00
2023-03-25T23:48:08.124Z,75.36
2023-03-25T23:50:40.814Z,75.46
2023-03-25T23:53:13.283Z,75.22
2023-03-25T23:55:49.144Z,74.84
2023-03-25T23:58:25.242Z,74.40
